UAE29N OMDB-HECA
Flight info
| Callsign | UAE29N |
|---|---|
| Flight time | 3h 17m |
| Altitude | 36000 |
| Route | KUTLI L519 ATUDO M318 GOLGU M550 RIBOT DCT MIGMA DCT ITRUX Y511 PMA Z712 WEJ L677 CVO |
| Aircraft | B77W/H-SDE1E2E3FGHIJ2J3J4J5M1RWXY/LB1D1 |
Departure
| Time | 2026-05-06 18:00 |
|---|---|
| Airport | Dubai International Airport (OMDB) |
Arrival
| Time | 2026-05-06 21:17 |
|---|---|
| Airport | Cairo International Airport (HECA) |
| Time | Latitude | Longitude | Altitude | Speed | Heading |
|---|---|---|---|---|---|
| 2026-05-06 17:35 | 25.24213 | 55.37587 | 31 ft | 0 kts | 249° |
| 2026-05-06 17:52 | 25.24215 | 55.37592 | 26 ft | 3 kts | 249° |
| 2026-05-06 17:52 | 25.24224 | 55.37621 | 32 ft | 3 kts | 249° |
| 2026-05-06 17:52 | 25.24233 | 55.37645 | 32 ft | 2 kts | 249° |
| 2026-05-06 17:52 | 25.24243 | 55.37667 | 25 ft | 3 kts | 226° |
| 2026-05-06 17:53 | 25.24256 | 55.37679 | 25 ft | 1 kts | 201° |
| 2026-05-06 17:53 | 25.24274 | 55.37683 | 24 ft | 4 kts | 163° |
| 2026-05-06 17:53 | 25.24289 | 55.37674 | 25 ft | 3 kts | 122° |
| 2026-05-06 17:53 | 25.24303 | 55.37649 | 26 ft | 3 kts | 122° |
| 2026-05-06 17:54 | 25.24308 | 55.37640 | 25 ft | 5 kts | 122° |
| 2026-05-06 17:56 | 25.24299 | 55.37657 | 24 ft | 6 kts | 122° |
| 2026-05-06 17:56 | 25.24262 | 55.37723 | 25 ft | 14 kts | 119° |
| 2026-05-06 17:56 | 25.24260 | 55.37771 | 27 ft | 6 kts | 22° |
| 2026-05-06 17:57 | 25.24318 | 55.37808 | 28 ft | 13 kts | 32° |
| 2026-05-06 17:57 | 25.24408 | 55.37870 | 32 ft | 17 kts | 32° |
| 2026-05-06 17:57 | 25.24517 | 55.37954 | 34 ft | 23 kts | 34° |
| 2026-05-06 17:57 | 25.24625 | 55.38035 | 30 ft | 12 kts | 33° |
| 2026-05-06 17:58 | 25.24693 | 55.38082 | 33 ft | 12 kts | 31° |
| 2026-05-06 17:58 | 25.24768 | 55.38107 | 35 ft | 12 kts | 353° |
| 2026-05-06 17:58 | 25.24810 | 55.38036 | 35 ft | 12 kts | 291° |
| 2026-05-06 17:58 | 25.24848 | 55.37954 | 35 ft | 15 kts | 300° |
| 2026-05-06 17:59 | 25.24968 | 55.37740 | 35 ft | 61 kts | 303° |
| 2026-05-06 17:59 | 25.25323 | 55.37101 | 35 ft | 132 kts | 302° |
| 2026-05-06 17:59 | 25.25908 | 55.36070 | 37 ft | 186 kts | 304° |
| 2026-05-06 17:59 | 25.26631 | 55.34874 | 651 ft | 168 kts | 311° |
| 2026-05-06 18:00 | 25.27258 | 55.33888 | 1348 ft | 160 kts | 299° |
| 2026-05-06 18:00 | 25.27829 | 55.32771 | 1397 ft | 172 kts | 300° |
| 2026-05-06 18:00 | 25.28453 | 55.31601 | 1550 ft | 183 kts | 301° |
| 2026-05-06 18:00 | 25.29109 | 55.30341 | 1688 ft | 195 kts | 292° |
| 2026-05-06 18:01 | 25.29247 | 55.28855 | 1768 ft | 202 kts | 252° |
| 2026-05-06 18:01 | 25.28677 | 55.27422 | 1985 ft | 205 kts | 244° |
| 2026-05-06 18:01 | 25.28075 | 55.25998 | 2341 ft | 205 kts | 244° |
| 2026-05-06 18:01 | 25.27473 | 55.24570 | 2683 ft | 205 kts | 244° |
| 2026-05-06 18:02 | 25.26860 | 55.23125 | 2941 ft | 209 kts | 244° |
| 2026-05-06 18:02 | 25.26234 | 55.21652 | 3135 ft | 217 kts | 244° |
| 2026-05-06 18:02 | 25.25570 | 55.20090 | 3262 ft | 230 kts | 244° |
| 2026-05-06 18:02 | 25.24907 | 55.18529 | 3532 ft | 235 kts | 244° |
| 2026-05-06 18:03 | 25.24223 | 55.16920 | 3936 ft | 232 kts | 244° |
| 2026-05-06 18:03 | 25.23485 | 55.15278 | 4065 ft | 247 kts | 240° |
| 2026-05-06 18:03 | 25.22584 | 55.13624 | 4307 ft | 253 kts | 236° |
| 2026-05-06 18:03 | 25.22330 | 55.13205 | 4419 ft | 252 kts | 234° |
| 2026-05-06 18:04 | 25.21508 | 55.11954 | 4843 ft | 246 kts | 231° |
| 2026-05-06 18:04 | 25.20821 | 55.11011 | 5190 ft | 242 kts | 229° |
| 2026-05-06 18:05 | 25.19721 | 55.09657 | 5586 ft | 243 kts | 225° |
| 2026-05-06 18:05 | 25.18506 | 55.08333 | 5888 ft | 248 kts | 221° |
| 2026-05-06 18:05 | 25.17199 | 55.07062 | 6197 ft | 252 kts | 218° |
| 2026-05-06 18:05 | 25.15829 | 55.05862 | 6573 ft | 251 kts | 216° |
| 2026-05-06 18:06 | 25.14410 | 55.04733 | 6963 ft | 250 kts | 213° |
| 2026-05-06 18:06 | 25.12960 | 55.03678 | 7308 ft | 251 kts | 211° |
| 2026-05-06 18:06 | 25.11472 | 55.02680 | 7570 ft | 256 kts | 209° |
| 2026-05-06 18:06 | 25.09955 | 55.01736 | 7840 ft | 260 kts | 207° |
| 2026-05-06 18:07 | 25.08369 | 55.00811 | 8131 ft | 263 kts | 206° |
| 2026-05-06 18:07 | 25.06729 | 54.99908 | 8468 ft | 263 kts | 205° |
| 2026-05-06 18:07 | 25.05090 | 54.99049 | 8831 ft | 263 kts | 204° |
| 2026-05-06 18:07 | 25.03383 | 54.98191 | 9276 ft | 268 kts | 203° |
| 2026-05-06 18:08 | 25.01680 | 54.97366 | 9780 ft | 267 kts | 202° |
| 2026-05-06 18:08 | 24.99972 | 54.96564 | 10215 ft | 268 kts | 202° |
| 2026-05-06 18:08 | 24.98217 | 54.95787 | 10483 ft | 274 kts | 194° |
| 2026-05-06 18:08 | 24.96264 | 54.95625 | 10400 ft | 290 kts | 176° |
| 2026-05-06 18:09 | 24.94272 | 54.95588 | 10611 ft | 302 kts | 184° |
| 2026-05-06 18:09 | 24.92147 | 54.95212 | 10721 ft | 315 kts | 191° |
| 2026-05-06 18:09 | 24.89972 | 54.94685 | 10937 ft | 323 kts | 191° |
| 2026-05-06 18:09 | 24.87756 | 54.94145 | 11236 ft | 328 kts | 191° |
| 2026-05-06 18:10 | 24.85564 | 54.93440 | 11511 ft | 331 kts | 204° |
| 2026-05-06 18:10 | 24.83507 | 54.92236 | 11801 ft | 335 kts | 209° |
| 2026-05-06 18:10 | 24.81477 | 54.90961 | 12145 ft | 337 kts | 209° |
| 2026-05-06 18:10 | 24.79452 | 54.89703 | 12497 ft | 339 kts | 208° |
| 2026-05-06 18:11 | 24.77379 | 54.88435 | 12810 ft | 342 kts | 208° |
| 2026-05-06 18:11 | 24.75965 | 54.87580 | 13020 ft | 344 kts | 208° |
| 2026-05-06 18:11 | 24.73144 | 54.85889 | 13435 ft | 348 kts | 208° |
| 2026-05-06 18:11 | 24.71032 | 54.84630 | 13727 ft | 350 kts | 208° |
| 2026-05-06 18:12 | 24.68886 | 54.83353 | 14058 ft | 351 kts | 208° |
| 2026-05-06 18:12 | 24.66766 | 54.82040 | 14423 ft | 350 kts | 210° |
| 2026-05-06 18:12 | 24.64663 | 54.80691 | 14787 ft | 351 kts | 210° |
| 2026-05-06 18:12 | 24.62543 | 54.79323 | 15143 ft | 351 kts | 210° |
| 2026-05-06 18:13 | 24.60429 | 54.77963 | 15506 ft | 352 kts | 210° |
| 2026-05-06 18:13 | 24.58308 | 54.76604 | 15852 ft | 353 kts | 210° |
| 2026-05-06 18:13 | 24.56184 | 54.75248 | 16199 ft | 353 kts | 210° |
| 2026-05-06 18:13 | 24.54080 | 54.73908 | 16533 ft | 354 kts | 210° |
| 2026-05-06 18:14 | 24.51948 | 54.72537 | 16863 ft | 355 kts | 210° |
| 2026-05-06 18:14 | 24.49817 | 54.71149 | 17182 ft | 356 kts | 210° |
| 2026-05-06 18:14 | 24.47677 | 54.69753 | 17504 ft | 357 kts | 210° |
| 2026-05-06 18:14 | 24.45540 | 54.68362 | 17816 ft | 358 kts | 210° |
| 2026-05-06 18:15 | 24.43388 | 54.66965 | 18123 ft | 359 kts | 210° |
| 2026-05-06 18:15 | 24.41217 | 54.65580 | 18384 ft | 360 kts | 209° |
| 2026-05-06 18:15 | 24.39065 | 54.64221 | 18661 ft | 362 kts | 209° |
| 2026-05-06 18:15 | 24.36882 | 54.62842 | 18915 ft | 363 kts | 209° |
| 2026-05-06 18:16 | 24.34686 | 54.61453 | 19175 ft | 364 kts | 209° |
| 2026-05-06 18:16 | 24.32483 | 54.60059 | 19433 ft | 365 kts | 209° |
| 2026-05-06 18:16 | 24.31021 | 54.59134 | 19603 ft | 366 kts | 210° |
| 2026-05-06 18:16 | 24.28812 | 54.57732 | 19857 ft | 367 kts | 211° |
| 2026-05-06 18:17 | 24.26661 | 54.56224 | 20095 ft | 368 kts | 215° |
| 2026-05-06 18:17 | 24.24695 | 54.54410 | 20303 ft | 369 kts | 226° |
| 2026-05-06 18:17 | 24.23056 | 54.52243 | 20551 ft | 370 kts | 235° |
| 2026-05-06 18:17 | 24.21713 | 54.49840 | 20795 ft | 370 kts | 240° |
| 2026-05-06 18:18 | 24.20451 | 54.47367 | 21032 ft | 371 kts | 241° |
| 2026-05-06 18:18 | 24.19205 | 54.44896 | 21280 ft | 371 kts | 241° |
| 2026-05-06 18:18 | 24.17952 | 54.42415 | 21532 ft | 371 kts | 241° |
| 2026-05-06 18:18 | 24.16696 | 54.39942 | 21721 ft | 373 kts | 241° |
| 2026-05-06 18:19 | 24.15471 | 54.37543 | 21909 ft | 375 kts | 241° |
| 2026-05-06 18:19 | 24.14194 | 54.35054 | 22104 ft | 375 kts | 241° |
| 2026-05-06 18:19 | 24.12911 | 54.32561 | 22337 ft | 376 kts | 241° |
| 2026-05-06 18:19 | 24.11624 | 54.30062 | 22543 ft | 377 kts | 241° |
| 2026-05-06 18:20 | 24.10351 | 54.27596 | 22733 ft | 377 kts | 241° |
| 2026-05-06 18:20 | 24.09058 | 54.25089 | 22917 ft | 379 kts | 241° |
| 2026-05-06 18:20 | 24.07757 | 54.22571 | 23114 ft | 379 kts | 241° |
| 2026-05-06 18:20 | 24.06454 | 54.20049 | 23294 ft | 382 kts | 241° |
| 2026-05-06 18:21 | 24.05119 | 54.17466 | 23392 ft | 398 kts | 241° |
| 2026-05-06 18:21 | 24.03724 | 54.14767 | 23500 ft | 415 kts | 241° |
| 2026-05-06 18:21 | 24.02275 | 54.11966 | 23615 ft | 431 kts | 241° |
| 2026-05-06 18:21 | 24.00766 | 54.09052 | 23718 ft | 446 kts | 241° |
| 2026-05-06 18:22 | 23.99239 | 54.06107 | 23947 ft | 455 kts | 240° |
| 2026-05-06 18:22 | 23.97655 | 54.03083 | 24315 ft | 460 kts | 240° |
| 2026-05-06 18:22 | 23.96052 | 54.00045 | 24817 ft | 461 kts | 240° |
| 2026-05-06 18:22 | 23.94442 | 53.97000 | 25354 ft | 461 kts | 240° |
| 2026-05-06 18:23 | 23.92836 | 53.93966 | 25865 ft | 462 kts | 240° |
| 2026-05-06 18:23 | 23.91228 | 53.90925 | 26318 ft | 464 kts | 240° |
| 2026-05-06 18:23 | 23.89607 | 53.87858 | 26764 ft | 466 kts | 240° |
| 2026-05-06 18:23 | 23.87985 | 53.84789 | 27211 ft | 468 kts | 240° |
| 2026-05-06 18:24 | 23.86348 | 53.81693 | 27660 ft | 469 kts | 240° |
| 2026-05-06 18:24 | 23.84711 | 53.78599 | 28080 ft | 471 kts | 240° |
| 2026-05-06 18:24 | 23.83087 | 53.75530 | 28489 ft | 473 kts | 240° |
| 2026-05-06 18:24 | 23.81439 | 53.72419 | 28868 ft | 475 kts | 240° |
| 2026-05-06 18:25 | 23.79777 | 53.69283 | 29225 ft | 476 kts | 240° |
| 2026-05-06 18:25 | 23.78113 | 53.66144 | 29570 ft | 478 kts | 240° |
| 2026-05-06 18:25 | 23.76439 | 53.62991 | 29931 ft | 479 kts | 240° |
| 2026-05-06 18:25 | 23.74791 | 53.59887 | 30312 ft | 477 kts | 240° |
| 2026-05-06 18:26 | 23.73127 | 53.56754 | 30725 ft | 475 kts | 240° |
| 2026-05-06 18:26 | 23.71465 | 53.53630 | 31150 ft | 473 kts | 240° |
| 2026-05-06 18:26 | 23.69811 | 53.50519 | 31542 ft | 472 kts | 241° |
| 2026-05-06 18:26 | 23.68169 | 53.47425 | 31925 ft | 471 kts | 241° |
| 2026-05-06 18:27 | 23.66531 | 53.44331 | 32317 ft | 470 kts | 241° |
| 2026-05-06 18:27 | 23.64897 | 53.41247 | 32708 ft | 468 kts | 241° |
| 2026-05-06 18:27 | 23.63289 | 53.38213 | 33082 ft | 467 kts | 241° |
| 2026-05-06 18:27 | 23.61660 | 53.35141 | 33450 ft | 466 kts | 241° |
| 2026-05-06 18:28 | 23.60035 | 53.32080 | 33807 ft | 465 kts | 241° |
| 2026-05-06 18:28 | 23.58415 | 53.29031 | 34111 ft | 464 kts | 241° |
| 2026-05-06 18:28 | 23.56795 | 53.25983 | 34399 ft | 463 kts | 241° |
| 2026-05-06 18:28 | 23.55182 | 53.22951 | 34681 ft | 463 kts | 241° |
| 2026-05-06 18:29 | 23.53581 | 53.19943 | 34957 ft | 462 kts | 240° |
| 2026-05-06 18:29 | 23.51967 | 53.16912 | 35228 ft | 461 kts | 240° |
| 2026-05-06 18:29 | 23.50356 | 53.13889 | 35504 ft | 460 kts | 240° |
| 2026-05-06 18:29 | 23.48744 | 53.10866 | 35725 ft | 462 kts | 240° |
| 2026-05-06 18:30 | 23.45504 | 53.04792 | 35794 ft | 464 kts | 240° |
| 2026-05-06 18:30 | 23.42290 | 52.98776 | 35796 ft | 459 kts | 240° |
| 2026-05-06 18:31 | 23.39105 | 52.92764 | 35801 ft | 457 kts | 241° |
| 2026-05-06 18:31 | 23.36002 | 52.86721 | 35802 ft | 456 kts | 241° |
| 2026-05-06 18:32 | 23.32929 | 52.80710 | 35805 ft | 456 kts | 241° |
| 2026-05-06 18:32 | 23.29824 | 52.74655 | 35801 ft | 458 kts | 241° |
| 2026-05-06 18:33 | 23.26704 | 52.68592 | 35803 ft | 459 kts | 241° |
| 2026-05-06 18:33 | 23.23599 | 52.62563 | 35800 ft | 460 kts | 241° |
| 2026-05-06 18:34 | 23.20460 | 52.56478 | 35798 ft | 461 kts | 241° |
| 2026-05-06 18:34 | 23.17554 | 52.50268 | 35798 ft | 461 kts | 248° |
| 2026-05-06 18:35 | 23.15496 | 52.43716 | 35797 ft | 461 kts | 251° |
| 2026-05-06 18:35 | 23.13447 | 52.37151 | 35797 ft | 461 kts | 250° |
| 2026-05-06 18:36 | 23.11344 | 52.30569 | 35796 ft | 460 kts | 250° |
| 2026-05-06 18:36 | 23.09254 | 52.24035 | 35797 ft | 460 kts | 250° |
| 2026-05-06 18:37 | 23.07155 | 52.17458 | 35798 ft | 460 kts | 250° |
| 2026-05-06 18:37 | 23.05062 | 52.10902 | 35795 ft | 459 kts | 250° |
| 2026-05-06 18:38 | 23.02965 | 52.04346 | 35800 ft | 459 kts | 250° |
| 2026-05-06 18:38 | 23.00882 | 51.97843 | 35799 ft | 459 kts | 250° |
| 2026-05-06 18:39 | 22.98783 | 51.91299 | 35798 ft | 459 kts | 250° |
| 2026-05-06 18:40 | 22.95629 | 51.81486 | 35797 ft | 459 kts | 250° |
| 2026-05-06 18:40 | 22.93524 | 51.74948 | 35797 ft | 459 kts | 250° |
| 2026-05-06 18:41 | 22.91419 | 51.68420 | 35797 ft | 459 kts | 250° |
| 2026-05-06 18:41 | 22.89308 | 51.61883 | 35796 ft | 459 kts | 250° |
| 2026-05-06 18:42 | 22.87205 | 51.55375 | 35798 ft | 459 kts | 250° |
| 2026-05-06 18:42 | 22.85253 | 51.48777 | 35794 ft | 460 kts | 256° |
| 2026-05-06 18:43 | 22.84271 | 51.41914 | 35804 ft | 461 kts | 264° |
| 2026-05-06 18:43 | 22.84138 | 51.34996 | 35810 ft | 462 kts | 268° |
| 2026-05-06 18:44 | 22.84132 | 51.28015 | 35802 ft | 462 kts | 268° |
| 2026-05-06 18:44 | 22.84114 | 51.21030 | 35798 ft | 462 kts | 268° |
| 2026-05-06 18:45 | 22.84072 | 51.14103 | 35800 ft | 462 kts | 268° |
| 2026-05-06 18:45 | 22.84019 | 51.07130 | 35799 ft | 462 kts | 267° |
| 2026-05-06 18:46 | 22.83960 | 51.00167 | 35801 ft | 462 kts | 267° |
| 2026-05-06 18:46 | 22.83900 | 50.93203 | 35799 ft | 462 kts | 267° |
| 2026-05-06 18:47 | 22.83836 | 50.86238 | 35801 ft | 462 kts | 267° |
| 2026-05-06 18:47 | 22.83770 | 50.79263 | 35801 ft | 462 kts | 267° |
| 2026-05-06 18:48 | 22.83702 | 50.72352 | 35802 ft | 461 kts | 267° |
| 2026-05-06 18:48 | 22.83630 | 50.65391 | 35803 ft | 461 kts | 267° |
| 2026-05-06 18:49 | 22.83555 | 50.58421 | 35803 ft | 461 kts | 267° |
| 2026-05-06 18:49 | 22.83477 | 50.51494 | 35804 ft | 461 kts | 267° |
| 2026-05-06 18:50 | 22.83396 | 50.44534 | 35803 ft | 461 kts | 267° |
| 2026-05-06 18:50 | 22.83312 | 50.37575 | 35801 ft | 461 kts | 267° |
| 2026-05-06 18:51 | 22.83225 | 50.30624 | 35803 ft | 461 kts | 267° |
| 2026-05-06 18:51 | 22.83135 | 50.23650 | 35798 ft | 462 kts | 267° |
| 2026-05-06 18:52 | 22.83042 | 50.16728 | 35800 ft | 461 kts | 267° |
| 2026-05-06 18:52 | 22.82946 | 50.09771 | 35798 ft | 461 kts | 267° |
| 2026-05-06 18:53 | 22.82847 | 50.02814 | 35799 ft | 461 kts | 267° |
| 2026-05-06 18:53 | 22.82745 | 49.95852 | 35804 ft | 461 kts | 266° |
| 2026-05-06 18:54 | 22.82640 | 49.88894 | 35799 ft | 461 kts | 266° |
| 2026-05-06 18:54 | 22.82532 | 49.81979 | 35803 ft | 461 kts | 266° |
| 2026-05-06 18:55 | 22.82422 | 49.75063 | 35797 ft | 461 kts | 266° |
| 2026-05-06 18:55 | 22.82308 | 49.68107 | 35798 ft | 461 kts | 266° |
| 2026-05-06 18:56 | 22.82190 | 49.61149 | 35800 ft | 461 kts | 266° |
| 2026-05-06 18:56 | 22.82071 | 49.54239 | 35794 ft | 461 kts | 266° |
| 2026-05-06 18:57 | 22.81948 | 49.47293 | 35797 ft | 460 kts | 266° |
| 2026-05-06 18:57 | 22.81822 | 49.40347 | 35796 ft | 460 kts | 266° |
| 2026-05-06 18:58 | 22.81693 | 49.33416 | 35800 ft | 460 kts | 266° |
| 2026-05-06 18:58 | 22.81561 | 49.26491 | 35800 ft | 459 kts | 266° |
| 2026-05-06 18:59 | 22.81427 | 49.19561 | 35792 ft | 459 kts | 266° |
| 2026-05-06 18:59 | 22.81291 | 49.12713 | 35799 ft | 459 kts | 266° |
| 2026-05-06 19:00 | 22.81151 | 49.05837 | 35800 ft | 459 kts | 266° |
| 2026-05-06 19:00 | 22.81008 | 48.98926 | 35802 ft | 459 kts | 266° |
| 2026-05-06 19:01 | 22.80863 | 48.92085 | 35800 ft | 458 kts | 266° |
| 2026-05-06 19:01 | 22.80714 | 48.85184 | 35806 ft | 458 kts | 266° |
| 2026-05-06 19:02 | 22.80587 | 48.79429 | 35805 ft | 458 kts | 266° |
| 2026-05-06 19:02 | 22.80433 | 48.72525 | 35806 ft | 458 kts | 266° |
| 2026-05-06 19:03 | 22.80275 | 48.65617 | 35804 ft | 458 kts | 266° |
| 2026-05-06 19:03 | 22.80116 | 48.58758 | 35805 ft | 458 kts | 266° |
| 2026-05-06 19:04 | 22.79952 | 48.51848 | 35801 ft | 458 kts | 266° |
| 2026-05-06 19:04 | 22.79785 | 48.44923 | 35803 ft | 459 kts | 266° |
| 2026-05-06 19:05 | 22.79616 | 48.38003 | 35804 ft | 459 kts | 266° |
| 2026-05-06 19:05 | 22.79443 | 48.31071 | 35800 ft | 460 kts | 266° |
| 2026-05-06 19:06 | 22.79266 | 48.24129 | 35800 ft | 461 kts | 266° |
| 2026-05-06 19:06 | 22.79088 | 48.17215 | 35803 ft | 461 kts | 266° |
| 2026-05-06 19:07 | 22.78906 | 48.10259 | 35802 ft | 461 kts | 266° |
| 2026-05-06 19:07 | 22.78720 | 48.03309 | 35797 ft | 461 kts | 266° |
| 2026-05-06 19:08 | 22.78532 | 47.96363 | 35800 ft | 460 kts | 266° |
| 2026-05-06 19:08 | 22.78341 | 47.89445 | 35801 ft | 459 kts | 266° |
| 2026-05-06 19:09 | 22.78148 | 47.82538 | 35808 ft | 458 kts | 266° |
| 2026-05-06 19:09 | 22.77954 | 47.75690 | 35808 ft | 457 kts | 266° |
| 2026-05-06 19:10 | 22.77755 | 47.68790 | 35811 ft | 456 kts | 266° |
| 2026-05-06 19:10 | 22.77554 | 47.61924 | 35822 ft | 456 kts | 266° |
| 2026-05-06 19:11 | 22.77351 | 47.55062 | 35826 ft | 455 kts | 266° |
| 2026-05-06 19:11 | 22.77145 | 47.48203 | 35828 ft | 455 kts | 266° |
| 2026-05-06 19:12 | 22.76937 | 47.41399 | 35846 ft | 455 kts | 266° |
| 2026-05-06 19:12 | 22.76726 | 47.34552 | 35842 ft | 454 kts | 265° |
| 2026-05-06 19:13 | 22.76514 | 47.27719 | 35852 ft | 454 kts | 265° |
| 2026-05-06 19:13 | 22.76298 | 47.20881 | 35852 ft | 454 kts | 265° |
| 2026-05-06 19:14 | 22.76428 | 47.14041 | 35869 ft | 456 kts | 272° |
| 2026-05-06 19:14 | 22.76992 | 47.07261 | 35863 ft | 456 kts | 272° |
| 2026-05-06 19:15 | 22.77568 | 47.00346 | 35873 ft | 456 kts | 272° |
| 2026-05-06 19:15 | 22.78115 | 46.93537 | 35879 ft | 456 kts | 272° |
| 2026-05-06 19:16 | 22.78658 | 46.86647 | 35886 ft | 456 kts | 271° |
| 2026-05-06 19:16 | 22.79194 | 46.79796 | 35888 ft | 456 kts | 271° |
| 2026-05-06 19:17 | 22.79727 | 46.72957 | 35893 ft | 455 kts | 271° |
| 2026-05-06 19:17 | 22.80253 | 46.66172 | 35896 ft | 454 kts | 271° |
| 2026-05-06 19:18 | 22.80780 | 46.59346 | 35905 ft | 454 kts | 271° |
| 2026-05-06 19:18 | 22.81303 | 46.52526 | 35908 ft | 453 kts | 271° |
| 2026-05-06 19:19 | 22.81825 | 46.45716 | 35918 ft | 453 kts | 271° |
| 2026-05-06 19:19 | 22.82337 | 46.38958 | 35910 ft | 452 kts | 271° |
| 2026-05-06 19:20 | 22.82838 | 46.32165 | 35915 ft | 451 kts | 271° |
| 2026-05-06 19:20 | 22.83334 | 46.25370 | 35904 ft | 451 kts | 271° |
| 2026-05-06 19:21 | 22.83828 | 46.18594 | 35918 ft | 450 kts | 271° |
| 2026-05-06 19:21 | 22.84321 | 46.11844 | 35911 ft | 451 kts | 271° |
| 2026-05-06 19:22 | 22.84812 | 46.05077 | 35904 ft | 451 kts | 271° |
| 2026-05-06 19:22 | 22.85298 | 45.98326 | 35905 ft | 450 kts | 271° |
| 2026-05-06 19:23 | 22.85781 | 45.91590 | 35904 ft | 450 kts | 271° |
| 2026-05-06 19:23 | 22.86262 | 45.84819 | 35894 ft | 449 kts | 271° |
| 2026-05-06 19:24 | 22.86738 | 45.78097 | 35894 ft | 449 kts | 270° |
| 2026-05-06 19:24 | 22.87213 | 45.71345 | 35892 ft | 448 kts | 270° |
| 2026-05-06 19:25 | 22.87685 | 45.64607 | 35896 ft | 448 kts | 270° |
| 2026-05-06 19:25 | 22.88153 | 45.57870 | 35891 ft | 448 kts | 270° |
| 2026-05-06 19:26 | 22.88619 | 45.51127 | 35893 ft | 448 kts | 270° |
| 2026-05-06 19:26 | 22.89079 | 45.44426 | 35898 ft | 448 kts | 270° |
| 2026-05-06 19:27 | 22.89539 | 45.37689 | 35903 ft | 448 kts | 270° |
| 2026-05-06 19:27 | 22.89997 | 45.30947 | 35895 ft | 448 kts | 270° |
| 2026-05-06 19:28 | 22.90452 | 45.24196 | 35894 ft | 449 kts | 270° |
| 2026-05-06 19:28 | 22.90907 | 45.17435 | 35903 ft | 449 kts | 270° |
| 2026-05-06 19:29 | 22.91359 | 45.10677 | 35902 ft | 449 kts | 270° |
| 2026-05-06 19:29 | 22.91801 | 45.03957 | 35903 ft | 449 kts | 270° |
| 2026-05-06 19:30 | 22.92243 | 44.97197 | 35910 ft | 449 kts | 270° |
| 2026-05-06 19:30 | 22.92686 | 44.90432 | 35906 ft | 449 kts | 270° |
| 2026-05-06 19:31 | 22.93127 | 44.83669 | 35911 ft | 449 kts | 270° |
| 2026-05-06 19:31 | 22.93786 | 44.73520 | 35923 ft | 449 kts | 270° |
| 2026-05-06 19:32 | 22.94543 | 44.66819 | 35913 ft | 452 kts | 277° |
| 2026-05-06 19:32 | 22.96249 | 44.60225 | 35929 ft | 455 kts | 283° |
| 2026-05-06 19:33 | 22.98291 | 44.53717 | 35913 ft | 454 kts | 283° |
| 2026-05-06 19:33 | 23.00322 | 44.47234 | 35920 ft | 453 kts | 283° |
| 2026-05-06 19:34 | 23.02327 | 44.40760 | 35923 ft | 451 kts | 283° |
| 2026-05-06 19:34 | 23.04314 | 44.34305 | 35925 ft | 450 kts | 283° |
| 2026-05-06 19:35 | 23.06293 | 44.27856 | 35930 ft | 449 kts | 283° |
| 2026-05-06 19:35 | 23.08263 | 44.21433 | 35926 ft | 449 kts | 282° |
| 2026-05-06 19:36 | 23.10221 | 44.15041 | 35934 ft | 448 kts | 282° |
| 2026-05-06 19:36 | 23.12141 | 44.08758 | 35941 ft | 448 kts | 282° |
| 2026-05-06 19:37 | 23.14114 | 44.02297 | 35938 ft | 448 kts | 282° |
| 2026-05-06 19:37 | 23.15742 | 43.96956 | 35938 ft | 447 kts | 282° |
| 2026-05-06 19:38 | 23.18024 | 43.89460 | 35944 ft | 446 kts | 282° |
| 2026-05-06 19:38 | 23.19960 | 43.83089 | 35946 ft | 446 kts | 282° |
| 2026-05-06 19:39 | 23.21903 | 43.76684 | 35949 ft | 445 kts | 282° |
| 2026-05-06 19:39 | 23.23840 | 43.70292 | 35957 ft | 445 kts | 282° |
| 2026-05-06 19:40 | 23.25776 | 43.63894 | 35955 ft | 445 kts | 282° |
| 2026-05-06 19:40 | 23.27705 | 43.57503 | 35959 ft | 444 kts | 282° |
| 2026-05-06 19:41 | 23.29613 | 43.51154 | 35966 ft | 444 kts | 282° |
| 2026-05-06 19:41 | 23.31530 | 43.44760 | 35973 ft | 444 kts | 281° |
| 2026-05-06 19:42 | 23.33447 | 43.38365 | 35973 ft | 444 kts | 281° |
| 2026-05-06 19:42 | 23.35362 | 43.31968 | 35984 ft | 444 kts | 281° |
| 2026-05-06 19:43 | 23.37259 | 43.25622 | 35984 ft | 444 kts | 281° |
| 2026-05-06 19:43 | 23.39174 | 43.19212 | 35986 ft | 445 kts | 281° |
| 2026-05-06 19:44 | 23.41081 | 43.12806 | 35997 ft | 444 kts | 281° |
| 2026-05-06 19:44 | 23.42976 | 43.06391 | 36000 ft | 445 kts | 281° |
| 2026-05-06 19:45 | 23.44861 | 42.99994 | 36002 ft | 445 kts | 281° |
| 2026-05-06 19:45 | 23.46745 | 42.93601 | 36000 ft | 445 kts | 281° |
| 2026-05-06 19:46 | 23.48635 | 42.87184 | 36002 ft | 445 kts | 281° |
| 2026-05-06 19:46 | 23.50528 | 42.80748 | 35998 ft | 444 kts | 281° |
| 2026-05-06 19:47 | 23.52400 | 42.74368 | 35996 ft | 444 kts | 281° |
| 2026-05-06 19:47 | 23.54287 | 42.67962 | 35988 ft | 443 kts | 281° |
| 2026-05-06 19:48 | 23.56179 | 42.61554 | 35994 ft | 443 kts | 281° |
| 2026-05-06 19:48 | 23.57742 | 42.56248 | 35988 ft | 442 kts | 281° |
| 2026-05-06 19:49 | 23.59924 | 42.48832 | 35989 ft | 441 kts | 281° |
| 2026-05-06 19:49 | 23.61784 | 42.42498 | 35984 ft | 441 kts | 280° |
| 2026-05-06 19:50 | 23.63348 | 42.37165 | 35991 ft | 440 kts | 280° |
| 2026-05-06 19:50 | 23.65199 | 42.30846 | 35986 ft | 440 kts | 280° |
| 2026-05-06 19:51 | 23.67047 | 42.24483 | 35993 ft | 439 kts | 280° |
| 2026-05-06 19:51 | 23.68864 | 42.18159 | 35991 ft | 438 kts | 280° |
| 2026-05-06 19:52 | 23.70689 | 42.11809 | 35992 ft | 438 kts | 280° |
| 2026-05-06 19:52 | 23.72514 | 42.05464 | 35992 ft | 438 kts | 280° |
| 2026-05-06 19:53 | 23.74334 | 41.99119 | 35994 ft | 437 kts | 280° |
| 2026-05-06 19:53 | 23.76170 | 41.92778 | 35998 ft | 437 kts | 280° |
| 2026-05-06 19:54 | 23.78009 | 41.86463 | 35990 ft | 437 kts | 280° |
| 2026-05-06 19:54 | 23.79835 | 41.80177 | 35999 ft | 436 kts | 280° |
| 2026-05-06 19:55 | 23.81666 | 41.73835 | 35994 ft | 436 kts | 280° |
| 2026-05-06 19:55 | 23.83471 | 41.67545 | 35993 ft | 436 kts | 280° |
| 2026-05-06 19:56 | 23.85289 | 41.61214 | 35992 ft | 436 kts | 280° |
| 2026-05-06 19:56 | 23.87107 | 41.54863 | 35992 ft | 436 kts | 280° |
| 2026-05-06 19:57 | 23.88899 | 41.48582 | 35986 ft | 436 kts | 279° |
| 2026-05-06 19:57 | 23.90709 | 41.42231 | 35981 ft | 436 kts | 280° |
| 2026-05-06 19:58 | 23.92516 | 41.35884 | 35984 ft | 437 kts | 280° |
| 2026-05-06 19:58 | 23.94302 | 41.29581 | 35986 ft | 437 kts | 280° |
| 2026-05-06 19:59 | 23.96095 | 41.23246 | 35977 ft | 437 kts | 280° |
| 2026-05-06 19:59 | 23.97891 | 41.16894 | 35979 ft | 437 kts | 280° |
| 2026-05-06 20:00 | 23.99690 | 41.10528 | 35977 ft | 438 kts | 280° |
| 2026-05-06 20:00 | 24.01477 | 41.04194 | 35975 ft | 438 kts | 280° |
| 2026-05-06 20:01 | 24.03272 | 40.97824 | 35977 ft | 438 kts | 280° |
| 2026-05-06 20:01 | 24.05061 | 40.91444 | 35966 ft | 438 kts | 280° |
| 2026-05-06 20:02 | 24.06846 | 40.85058 | 35985 ft | 438 kts | 280° |
| 2026-05-06 20:02 | 24.08629 | 40.78677 | 35979 ft | 438 kts | 280° |
| 2026-05-06 20:03 | 24.10401 | 40.72332 | 35977 ft | 438 kts | 280° |
| 2026-05-06 20:03 | 24.12178 | 40.65957 | 35980 ft | 438 kts | 280° |
| 2026-05-06 20:04 | 24.13955 | 40.59577 | 35972 ft | 438 kts | 280° |
| 2026-05-06 20:04 | 24.15759 | 40.53200 | 35972 ft | 439 kts | 282° |
| 2026-05-06 20:05 | 24.18269 | 40.47030 | 35976 ft | 447 kts | 290° |
| 2026-05-06 20:05 | 24.21170 | 40.41036 | 35975 ft | 448 kts | 290° |
| 2026-05-06 20:06 | 24.24080 | 40.34997 | 35970 ft | 448 kts | 290° |
| 2026-05-06 20:06 | 24.26973 | 40.28954 | 35966 ft | 447 kts | 290° |
| 2026-05-06 20:07 | 24.29839 | 40.22944 | 35970 ft | 447 kts | 290° |
| 2026-05-06 20:07 | 24.32715 | 40.16903 | 35969 ft | 447 kts | 290° |
| 2026-05-06 20:08 | 24.35594 | 40.10849 | 35979 ft | 447 kts | 290° |
| 2026-05-06 20:08 | 24.38468 | 40.04800 | 35966 ft | 448 kts | 290° |
| 2026-05-06 20:09 | 24.41346 | 39.98733 | 35967 ft | 448 kts | 290° |
| 2026-05-06 20:09 | 24.44226 | 39.92658 | 35971 ft | 449 kts | 290° |
| 2026-05-06 20:10 | 24.47121 | 39.86541 | 35966 ft | 450 kts | 290° |
| 2026-05-06 20:10 | 24.50009 | 39.80437 | 35971 ft | 451 kts | 290° |
| 2026-05-06 20:11 | 24.52957 | 39.74383 | 35962 ft | 456 kts | 296° |
| 2026-05-06 20:11 | 24.57050 | 39.68914 | 35976 ft | 469 kts | 307° |
| 2026-05-06 20:12 | 24.62183 | 39.64329 | 35979 ft | 480 kts | 316° |
| 2026-05-06 20:12 | 24.67638 | 39.60073 | 35980 ft | 480 kts | 316° |
| 2026-05-06 20:13 | 24.73043 | 39.55843 | 35974 ft | 479 kts | 316° |
| 2026-05-06 20:13 | 24.78452 | 39.51543 | 35966 ft | 479 kts | 316° |
| 2026-05-06 20:14 | 24.83829 | 39.47237 | 35972 ft | 478 kts | 316° |
| 2026-05-06 20:14 | 24.89205 | 39.42925 | 35953 ft | 478 kts | 316° |
| 2026-05-06 20:15 | 24.94584 | 39.38611 | 35962 ft | 477 kts | 316° |
| 2026-05-06 20:15 | 24.99899 | 39.34345 | 35963 ft | 477 kts | 316° |
| 2026-05-06 20:16 | 25.05258 | 39.30041 | 35964 ft | 476 kts | 315° |
| 2026-05-06 20:16 | 25.10616 | 39.25732 | 35959 ft | 476 kts | 315° |
| 2026-05-06 20:17 | 25.15964 | 39.21426 | 35967 ft | 475 kts | 315° |
| 2026-05-06 20:17 | 25.21004 | 39.16878 | 35965 ft | 464 kts | 306° |
| 2026-05-06 20:18 | 25.25136 | 39.11511 | 35965 ft | 453 kts | 297° |
| 2026-05-06 20:18 | 25.28562 | 39.05687 | 35957 ft | 451 kts | 295° |
| 2026-05-06 20:19 | 25.31917 | 38.99854 | 35968 ft | 451 kts | 295° |
| 2026-05-06 20:19 | 25.35310 | 38.93998 | 35951 ft | 453 kts | 295° |
| 2026-05-06 20:20 | 25.38706 | 38.88168 | 35944 ft | 454 kts | 295° |
| 2026-05-06 20:20 | 25.42139 | 38.82287 | 35947 ft | 454 kts | 295° |
| 2026-05-06 20:21 | 25.45568 | 38.76406 | 35937 ft | 454 kts | 295° |
| 2026-05-06 20:21 | 25.48970 | 38.70560 | 35932 ft | 454 kts | 295° |
| 2026-05-06 20:22 | 25.52384 | 38.64685 | 35932 ft | 453 kts | 295° |
| 2026-05-06 20:22 | 25.55793 | 38.58810 | 35924 ft | 453 kts | 295° |
| 2026-05-06 20:23 | 25.59203 | 38.52926 | 35918 ft | 453 kts | 295° |
| 2026-05-06 20:23 | 25.62609 | 38.47043 | 35920 ft | 453 kts | 295° |
| 2026-05-06 20:24 | 25.65986 | 38.41202 | 35902 ft | 453 kts | 295° |
| 2026-05-06 20:24 | 25.69386 | 38.35314 | 35922 ft | 453 kts | 295° |
| 2026-05-06 20:25 | 25.72789 | 38.29415 | 35925 ft | 453 kts | 295° |
| 2026-05-06 20:25 | 25.76179 | 38.23530 | 35907 ft | 453 kts | 295° |
| 2026-05-06 20:26 | 25.79575 | 38.17628 | 35904 ft | 452 kts | 295° |
| 2026-05-06 20:26 | 25.82955 | 38.11745 | 35918 ft | 452 kts | 295° |
| 2026-05-06 20:27 | 25.86312 | 38.05896 | 35925 ft | 452 kts | 295° |
| 2026-05-06 20:27 | 25.89696 | 37.99991 | 35928 ft | 452 kts | 295° |
| 2026-05-06 20:28 | 25.93072 | 37.94098 | 35943 ft | 452 kts | 295° |
| 2026-05-06 20:28 | 25.96441 | 37.88205 | 35942 ft | 451 kts | 295° |
| 2026-05-06 20:29 | 25.99392 | 37.82183 | 35951 ft | 440 kts | 285° |
| 2026-05-06 20:29 | 26.01242 | 37.75758 | 35951 ft | 432 kts | 276° |
| 2026-05-06 20:30 | 26.02600 | 37.65898 | 35956 ft | 430 kts | 273° |
| 2026-05-06 20:31 | 26.03466 | 37.59335 | 35956 ft | 431 kts | 273° |
| 2026-05-06 20:31 | 26.04366 | 37.52728 | 35955 ft | 431 kts | 273° |
| 2026-05-06 20:32 | 26.05248 | 37.46182 | 35955 ft | 430 kts | 273° |
| 2026-05-06 20:32 | 26.06119 | 37.39598 | 35931 ft | 430 kts | 273° |
| 2026-05-06 20:33 | 26.06987 | 37.33030 | 35935 ft | 429 kts | 273° |
| 2026-05-06 20:33 | 26.07850 | 37.26494 | 35931 ft | 429 kts | 273° |
| 2026-05-06 20:34 | 26.08715 | 37.19926 | 35929 ft | 429 kts | 273° |
| 2026-05-06 20:34 | 26.09581 | 37.13333 | 35921 ft | 430 kts | 273° |
| 2026-05-06 20:35 | 26.10444 | 37.06745 | 35920 ft | 431 kts | 273° |
| 2026-05-06 20:35 | 26.11159 | 37.01254 | 35915 ft | 431 kts | 273° |
| 2026-05-06 20:36 | 26.12158 | 36.93564 | 35916 ft | 432 kts | 273° |
| 2026-05-06 20:36 | 26.12873 | 36.88042 | 35910 ft | 433 kts | 273° |
| 2026-05-06 20:37 | 26.13731 | 36.81395 | 35900 ft | 434 kts | 273° |
| 2026-05-06 20:37 | 26.14590 | 36.74723 | 35913 ft | 435 kts | 273° |
| 2026-05-06 20:38 | 26.15439 | 36.68105 | 35916 ft | 435 kts | 273° |
| 2026-05-06 20:38 | 26.16291 | 36.61449 | 35920 ft | 435 kts | 273° |
| 2026-05-06 20:39 | 26.17147 | 36.54769 | 35909 ft | 435 kts | 275° |
| 2026-05-06 20:39 | 26.19261 | 36.48365 | 35921 ft | 449 kts | 292° |
| 2026-05-06 20:40 | 26.22988 | 36.42662 | 35933 ft | 463 kts | 306° |
| 2026-05-06 20:40 | 26.27498 | 36.37552 | 35923 ft | 465 kts | 307° |
| 2026-05-06 20:41 | 26.32064 | 36.32435 | 35909 ft | 465 kts | 307° |
| 2026-05-06 20:41 | 26.36599 | 36.27257 | 35913 ft | 465 kts | 307° |
| 2026-05-06 20:42 | 26.41090 | 36.22074 | 35913 ft | 464 kts | 306° |
| 2026-05-06 20:42 | 26.45544 | 36.16918 | 35908 ft | 464 kts | 306° |
| 2026-05-06 20:43 | 26.50023 | 36.11731 | 35912 ft | 463 kts | 306° |
| 2026-05-06 20:43 | 26.54493 | 36.06550 | 35910 ft | 463 kts | 306° |
| 2026-05-06 20:44 | 26.58976 | 36.01349 | 35911 ft | 463 kts | 306° |
| 2026-05-06 20:44 | 26.63443 | 35.96161 | 35915 ft | 463 kts | 306° |
| 2026-05-06 20:45 | 26.67877 | 35.91004 | 35915 ft | 463 kts | 306° |
| 2026-05-06 20:45 | 26.72346 | 35.85803 | 35916 ft | 463 kts | 307° |
| 2026-05-06 20:46 | 26.76812 | 35.80599 | 35917 ft | 463 kts | 307° |
| 2026-05-06 20:46 | 26.81272 | 35.75390 | 35918 ft | 463 kts | 306° |
| 2026-05-06 20:47 | 26.85702 | 35.70206 | 35916 ft | 463 kts | 306° |
| 2026-05-06 20:47 | 26.90158 | 35.64989 | 35919 ft | 463 kts | 307° |
| 2026-05-06 20:48 | 26.94613 | 35.59769 | 35919 ft | 463 kts | 307° |
| 2026-05-06 20:48 | 26.99071 | 35.54541 | 35920 ft | 463 kts | 307° |
| 2026-05-06 20:49 | 27.03520 | 35.49314 | 35923 ft | 463 kts | 307° |
| 2026-05-06 20:49 | 27.07968 | 35.44085 | 35923 ft | 463 kts | 307° |
| 2026-05-06 20:50 | 27.12414 | 35.38850 | 35925 ft | 463 kts | 307° |
| 2026-05-06 20:50 | 27.16861 | 35.33608 | 35928 ft | 463 kts | 307° |
| 2026-05-06 20:51 | 27.21301 | 35.28368 | 35927 ft | 463 kts | 307° |
| 2026-05-06 20:51 | 27.25729 | 35.23135 | 35925 ft | 463 kts | 307° |
| 2026-05-06 20:52 | 27.30146 | 35.17910 | 35929 ft | 463 kts | 307° |
| 2026-05-06 20:52 | 27.37884 | 35.08739 | 35934 ft | 462 kts | 307° |
| 2026-05-06 20:53 | 27.46733 | 34.98231 | 35928 ft | 462 kts | 307° |
| 2026-05-06 20:53 | 27.55821 | 34.87929 | 35920 ft | 465 kts | 310° |
| 2026-05-06 20:54 | 27.72017 | 34.70873 | 35951 ft | 465 kts | 310° |
| 2026-05-06 20:54 | 27.90604 | 34.51108 | 35972 ft | 465 kts | 310° |
| 2026-05-06 20:55 | 28.10955 | 34.26154 | 36013 ft | 453 kts | 302° |
| 2026-05-06 20:55 | 28.14798 | 34.20582 | 35985 ft | 460 kts | 302° |
| 2026-05-06 20:56 | 28.18816 | 34.14936 | 35992 ft | 461 kts | 303° |
| 2026-05-06 20:56 | 28.22879 | 34.09296 | 36015 ft | 460 kts | 303° |
| 2026-05-06 20:57 | 28.30081 | 33.99283 | 35969 ft | 458 kts | 303° |
| 2026-05-06 20:57 | 28.46067 | 33.76941 | 36088 ft | 458 kts | 303° |
| 2026-05-06 20:58 | 28.62118 | 33.54399 | 35991 ft | 462 kts | 303° |
| 2026-05-06 20:58 | 28.78221 | 33.31660 | 36011 ft | 459 kts | 303° |
| 2026-05-06 20:59 | 28.94248 | 33.08920 | 36025 ft | 458 kts | 303° |
| 2026-05-06 20:59 | 29.08216 | 32.88996 | 34850 ft | 462 kts | 304° |
| 2026-05-06 20:59 | 29.10215 | 32.86135 | 33861 ft | 469 kts | 304° |
| 2026-05-06 21:00 | 29.12255 | 32.83215 | 32894 ft | 471 kts | 304° |
| 2026-05-06 21:00 | 29.14313 | 32.80271 | 31943 ft | 473 kts | 305° |
| 2026-05-06 21:00 | 29.16360 | 32.77338 | 31018 ft | 476 kts | 305° |
| 2026-05-06 21:00 | 29.18423 | 32.74383 | 30339 ft | 473 kts | 306° |
| 2026-05-06 21:01 | 29.20440 | 32.71492 | 29580 ft | 470 kts | 306° |
| 2026-05-06 21:01 | 29.22469 | 32.68581 | 28863 ft | 466 kts | 306° |
| 2026-05-06 21:01 | 29.24479 | 32.65694 | 28226 ft | 461 kts | 306° |
| 2026-05-06 21:01 | 29.26445 | 32.62868 | 27581 ft | 457 kts | 306° |
| 2026-05-06 21:02 | 29.28420 | 32.60024 | 26942 ft | 453 kts | 306° |
| 2026-05-06 21:02 | 29.30369 | 32.57201 | 26332 ft | 449 kts | 306° |
| 2026-05-06 21:02 | 29.32299 | 32.54387 | 25732 ft | 446 kts | 306° |
| 2026-05-06 21:02 | 29.34211 | 32.51593 | 25118 ft | 443 kts | 306° |
| 2026-05-06 21:03 | 29.36111 | 32.48815 | 24507 ft | 441 kts | 306° |
| 2026-05-06 21:03 | 29.38000 | 32.46052 | 23885 ft | 439 kts | 306° |
| 2026-05-06 21:03 | 29.39882 | 32.43302 | 23208 ft | 438 kts | 306° |
| 2026-05-06 21:03 | 29.41760 | 32.40556 | 22556 ft | 435 kts | 306° |
| 2026-05-06 21:04 | 29.43597 | 32.37870 | 21954 ft | 431 kts | 306° |
| 2026-05-06 21:04 | 29.45441 | 32.35173 | 21364 ft | 428 kts | 306° |
| 2026-05-06 21:04 | 29.47269 | 32.32496 | 20774 ft | 424 kts | 306° |
| 2026-05-06 21:04 | 29.49084 | 32.29837 | 20226 ft | 421 kts | 306° |
| 2026-05-06 21:05 | 29.50885 | 32.27196 | 19644 ft | 419 kts | 306° |
| 2026-05-06 21:05 | 29.52673 | 32.24573 | 19056 ft | 416 kts | 306° |
| 2026-05-06 21:05 | 29.54463 | 32.21945 | 18471 ft | 414 kts | 306° |
| 2026-05-06 21:05 | 29.56235 | 32.19341 | 17836 ft | 412 kts | 306° |
| 2026-05-06 21:06 | 29.58002 | 32.16745 | 17237 ft | 409 kts | 306° |
| 2026-05-06 21:06 | 29.59725 | 32.14211 | 16670 ft | 406 kts | 306° |
| 2026-05-06 21:06 | 29.63025 | 32.09354 | 15598 ft | 399 kts | 306° |
| 2026-05-06 21:06 | 29.67749 | 32.02392 | 14057 ft | 368 kts | 306° |
| 2026-05-06 21:07 | 29.74002 | 31.93156 | 11979 ft | 362 kts | 307° |
| 2026-05-06 21:07 | 29.78148 | 31.86579 | 10947 ft | 346 kts | 298° |
| 2026-05-06 21:07 | 29.79202 | 31.84149 | 10833 ft | 333 kts | 292° |
| 2026-05-06 21:07 | 29.80042 | 31.81704 | 10703 ft | 322 kts | 291° |
| 2026-05-06 21:08 | 29.80824 | 31.79333 | 10575 ft | 311 kts | 290° |
| 2026-05-06 21:08 | 29.81580 | 31.77031 | 10450 ft | 301 kts | 290° |
| 2026-05-06 21:08 | 29.82311 | 31.74807 | 10332 ft | 292 kts | 291° |
| 2026-05-06 21:08 | 29.83147 | 31.72271 | 10193 ft | 281 kts | 291° |
| 2026-05-06 21:09 | 29.84510 | 31.68156 | 9691 ft | 273 kts | 291° |
| 2026-05-06 21:09 | 29.85862 | 31.64082 | 9024 ft | 270 kts | 291° |
| 2026-05-06 21:09 | 29.87193 | 31.60072 | 8382 ft | 267 kts | 291° |
| 2026-05-06 21:09 | 29.88511 | 31.56097 | 7755 ft | 264 kts | 292° |
| 2026-05-06 21:10 | 29.89814 | 31.52169 | 7138 ft | 261 kts | 292° |
| 2026-05-06 21:10 | 29.91111 | 31.48253 | 6547 ft | 260 kts | 292° |
| 2026-05-06 21:10 | 29.92160 | 31.45085 | 6011 ft | 261 kts | 292° |
| 2026-05-06 21:10 | 29.92803 | 31.43140 | 5682 ft | 262 kts | 292° |
| 2026-05-06 21:11 | 29.93453 | 31.41174 | 5366 ft | 262 kts | 292° |
| 2026-05-06 21:11 | 29.94103 | 31.39208 | 5043 ft | 263 kts | 292° |
| 2026-05-06 21:11 | 29.94755 | 31.37234 | 4726 ft | 263 kts | 292° |
| 2026-05-06 21:11 | 29.95404 | 31.35260 | 4484 ft | 260 kts | 292° |
| 2026-05-06 21:12 | 29.96038 | 31.33329 | 4311 ft | 252 kts | 293° |
| 2026-05-06 21:12 | 29.96631 | 31.31518 | 4087 ft | 232 kts | 294° |
| 2026-05-06 21:12 | 29.97406 | 31.30033 | 3754 ft | 211 kts | 323° |
| 2026-05-06 21:12 | 29.98675 | 31.29375 | 3254 ft | 197 kts | 1° |
| 2026-05-06 21:13 | 29.99945 | 31.29792 | 2941 ft | 189 kts | 32° |
| 2026-05-06 21:13 | 30.00950 | 31.30718 | 2703 ft | 181 kts | 40° |
| 2026-05-06 21:13 | 30.01856 | 31.31659 | 2380 ft | 170 kts | 41° |
| 2026-05-06 21:13 | 30.02661 | 31.32599 | 2120 ft | 155 kts | 45° |
| 2026-05-06 21:14 | 30.03373 | 31.33515 | 2110 ft | 156 kts | 45° |
| 2026-05-06 21:14 | 30.04072 | 31.34433 | 2070 ft | 149 kts | 45° |
| 2026-05-06 21:14 | 30.04718 | 31.35261 | 1766 ft | 143 kts | 47° |
| 2026-05-06 21:14 | 30.05216 | 31.35953 | 1790 ft | 137 kts | 51° |
| 2026-05-06 21:15 | 30.05851 | 31.36809 | 1689 ft | 141 kts | 45° |
| 2026-05-06 21:15 | 30.06515 | 31.37649 | 1426 ft | 142 kts | 46° |
| 2026-05-06 21:15 | 30.07152 | 31.38504 | 1174 ft | 137 kts | 47° |
| 2026-05-06 21:15 | 30.07794 | 31.39336 | 1071 ft | 141 kts | 46° |
| 2026-05-06 21:16 | 30.08454 | 31.40215 | 852 ft | 144 kts | 48° |
| 2026-05-06 21:16 | 30.09088 | 31.41076 | 579 ft | 137 kts | 48° |
| 2026-05-06 21:16 | 30.09668 | 31.41848 | 456 ft | 126 kts | 46° |
| 2026-05-06 21:16 | 30.10242 | 31.42624 | 390 ft | 119 kts | 49° |
| 2026-05-06 21:17 | 30.10701 | 31.43212 | 378 ft | 79 kts | 49° |
| 2026-05-06 21:17 | 30.10950 | 31.43499 | 377 ft | 24 kts | 21° |
| 2026-05-06 21:17 | 30.11095 | 31.43567 | 379 ft | 25 kts | 22° |
| 2026-05-06 21:17 | 30.11200 | 31.43593 | 379 ft | 9 kts | 341° |
| 2026-05-06 21:18 | 30.11236 | 31.43539 | 379 ft | 9 kts | 292° |
| 2026-05-06 21:18 | 30.11237 | 31.43467 | 379 ft | 9 kts | 271° |
| 2026-05-06 21:18 | 30.11264 | 31.43401 | 379 ft | 9 kts | 313° |
| 2026-05-06 21:18 | 30.11315 | 31.43349 | 379 ft | 11 kts | 319° |
| 2026-05-06 21:19 | 30.11392 | 31.43272 | 379 ft | 18 kts | 318° |
| 2026-05-06 21:19 | 30.11500 | 31.43157 | 379 ft | 24 kts | 317° |
| 2026-05-06 21:19 | 30.11649 | 31.43025 | 379 ft | 30 kts | 323° |
| 2026-05-06 21:19 | 30.11792 | 31.42876 | 379 ft | 24 kts | 319° |
| 2026-05-06 21:20 | 30.11875 | 31.42791 | 379 ft | 24 kts | 319° |
| 2026-05-06 21:20 | 30.12004 | 31.42666 | 379 ft | 24 kts | 320° |
| 2026-05-06 21:20 | 30.12126 | 31.42548 | 379 ft | 19 kts | 320° |
| 2026-05-06 21:20 | 30.12207 | 31.42434 | 379 ft | 19 kts | 275° |
| 2026-05-06 21:21 | 30.12132 | 31.42312 | 379 ft | 19 kts | 228° |
| 2026-05-06 21:21 | 30.12045 | 31.42196 | 379 ft | 19 kts | 230° |
| 2026-05-06 21:21 | 30.11961 | 31.42079 | 379 ft | 19 kts | 230° |
| 2026-05-06 21:21 | 30.11876 | 31.41962 | 379 ft | 19 kts | 230° |
| 2026-05-06 21:22 | 30.11788 | 31.41848 | 379 ft | 19 kts | 228° |
| 2026-05-06 21:22 | 30.11700 | 31.41736 | 379 ft | 19 kts | 228° |
| 2026-05-06 21:22 | 30.11612 | 31.41622 | 379 ft | 19 kts | 229° |
| 2026-05-06 21:22 | 30.11521 | 31.41498 | 379 ft | 21 kts | 231° |
| 2026-05-06 21:23 | 30.11429 | 31.41372 | 379 ft | 20 kts | 228° |
| 2026-05-06 21:23 | 30.11417 | 31.41236 | 379 ft | 16 kts | 280° |
| 2026-05-06 21:23 | 30.11365 | 31.41126 | 379 ft | 16 kts | 228° |
| 2026-05-06 21:23 | 30.11289 | 31.41028 | 379 ft | 17 kts | 228° |
| 2026-05-06 21:24 | 30.11208 | 31.40922 | 379 ft | 18 kts | 229° |
| 2026-05-06 21:24 | 30.11123 | 31.40810 | 379 ft | 19 kts | 229° |
| 2026-05-06 21:24 | 30.11031 | 31.40688 | 379 ft | 20 kts | 230° |
| 2026-05-06 21:24 | 30.11027 | 31.40626 | 379 ft | 7 kts | 314° |
| 2026-05-06 21:25 | 30.11070 | 31.40585 | 379 ft | 9 kts | 320° |
| 2026-05-06 21:25 | 30.11121 | 31.40536 | 379 ft | 10 kts | 319° |
| 2026-05-06 21:25 | 30.11178 | 31.40478 | 379 ft | 12 kts | 319° |
| 2026-05-06 21:25 | 30.11231 | 31.40424 | 379 ft | 9 kts | 319° |
| 2026-05-06 21:26 | 30.11279 | 31.40366 | 379 ft | 11 kts | 300° |
| 2026-05-06 21:26 | 30.11304 | 31.40281 | 379 ft | 10 kts | 287° |
| 2026-05-06 21:26 | 30.11315 | 31.40239 | 379 ft | 0 kts | 283° |
| 2026-05-06 21:27 | 30.11315 | 31.40238 | 379 ft | 1 kts | 282° |
| 2026-05-06 21:27 | 30.11316 | 31.40225 | 379 ft | 2 kts | 271° |
| 2026-05-06 21:27 | 30.11312 | 31.40205 | 379 ft | 3 kts | 252° |
| 2026-05-06 21:27 | 30.11302 | 31.40186 | 379 ft | 3 kts | 233° |
| 2026-05-06 21:28 | 30.11290 | 31.40172 | 379 ft | 3 kts | 226° |
| 2026-05-06 21:28 | 30.11276 | 31.40158 | 379 ft | 3 kts | 217° |
| 2026-05-06 21:28 | 30.11269 | 31.40152 | 379 ft | 1 kts | 217° |
| 2026-05-06 21:28 | 30.11263 | 31.40147 | 379 ft | 0 kts | 216° |
| 2026-05-06 21:29 | 30.11261 | 31.40145 | 379 ft | 0 kts | 216° |